WHSE22 YBMD-YBCS
Flight info
| Callsign | WHSE22 |
|---|---|
| Flight time | 0h 33m |
| Altitude | 4000 |
| Route | DCT |
| Aircraft | H47/M-SDFGRY/LB1 |
Departure
| Time | 2026-05-06 07:47 |
|---|---|
| Airport | Bloomfield River Airport (YBMD) |
Arrival
| Time | 2026-05-06 08:20 |
|---|---|
| Airport | Cairns International Airport (YBCS) |
| Time | Latitude | Longitude | Altitude | Speed | Heading |
|---|---|---|---|---|---|
| 2026-05-06 07:45 | -15.87247 | 145.32809 | 35 ft | 0 kts | 131° |
| 2026-05-06 07:46 | -15.87256 | 145.32814 | 52 ft | 12 kts | 123° |
| 2026-05-06 07:47 | -15.87381 | 145.32994 | 90 ft | 53 kts | 132° |
| 2026-05-06 07:47 | -15.87754 | 145.33436 | 273 ft | 109 kts | 133° |
| 2026-05-06 07:47 | -15.88378 | 145.33930 | 1149 ft | 108 kts | 149° |
| 2026-05-06 07:47 | -15.89171 | 145.34237 | 1802 ft | 140 kts | 159° |
| 2026-05-06 07:48 | -15.90176 | 145.34699 | 1543 ft | 171 kts | 154° |
| 2026-05-06 07:48 | -15.91278 | 145.35240 | 1135 ft | 180 kts | 155° |
| 2026-05-06 07:48 | -15.92420 | 145.35694 | 1016 ft | 163 kts | 159° |
| 2026-05-06 07:48 | -15.93422 | 145.36035 | 1473 ft | 151 kts | 162° |
| 2026-05-06 07:49 | -15.94501 | 145.36312 | 1392 ft | 165 kts | 163° |
| 2026-05-06 07:49 | -15.95601 | 145.36609 | 1440 ft | 159 kts | 165° |
| 2026-05-06 07:49 | -15.96585 | 145.36869 | 1940 ft | 135 kts | 163° |
| 2026-05-06 07:49 | -15.97519 | 145.37111 | 2351 ft | 146 kts | 164° |
| 2026-05-06 07:50 | -15.98498 | 145.37343 | 2678 ft | 135 kts | 163° |
| 2026-05-06 07:50 | -15.99282 | 145.37711 | 3429 ft | 106 kts | 144° |
| 2026-05-06 07:50 | -15.87252 | 145.32814 | 34 ft | 0 kts | 126° |
| 2026-05-06 07:51 | -15.87257 | 145.32817 | 77 ft | 8 kts | 124° |
| 2026-05-06 07:51 | -15.87447 | 145.33010 | 351 ft | 75 kts | 146° |
| 2026-05-06 07:51 | -15.87974 | 145.33599 | 737 ft | 144 kts | 136° |
| 2026-05-06 07:52 | -15.88705 | 145.34459 | 696 ft | 164 kts | 134° |
| 2026-05-06 07:52 | -15.89568 | 145.35236 | 848 ft | 167 kts | 145° |
| 2026-05-06 07:52 | -15.90555 | 145.35877 | 969 ft | 164 kts | 152° |
| 2026-05-06 07:52 | -15.91552 | 145.36459 | 1059 ft | 163 kts | 153° |
| 2026-05-06 07:53 | -15.92556 | 145.36971 | 1203 ft | 158 kts | 156° |
| 2026-05-06 07:53 | -15.93463 | 145.37507 | 1393 ft | 147 kts | 152° |
| 2026-05-06 07:53 | -15.94341 | 145.38067 | 1727 ft | 147 kts | 153° |
| 2026-05-06 07:53 | -15.95225 | 145.38633 | 1943 ft | 154 kts | 149° |
| 2026-05-06 07:54 | -15.96161 | 145.39254 | 1932 ft | 163 kts | 148° |
| 2026-05-06 07:54 | -15.97146 | 145.39864 | 1860 ft | 166 kts | 152° |
| 2026-05-06 07:54 | -15.98135 | 145.40462 | 1797 ft | 165 kts | 151° |
| 2026-05-06 07:54 | -15.99111 | 145.41090 | 1774 ft | 163 kts | 148° |
| 2026-05-06 07:55 | -16.00214 | 145.42122 | 2030 ft | 155 kts | 135° |
| 2026-05-06 07:55 | -16.00635 | 145.42696 | 2245 ft | 146 kts | 130° |
| 2026-05-06 07:55 | -16.01341 | 145.43491 | 2368 ft | 154 kts | 140° |
| 2026-05-06 07:55 | -16.02208 | 145.44182 | 2322 ft | 161 kts | 147° |
| 2026-05-06 07:56 | -16.03201 | 145.44761 | 2283 ft | 163 kts | 155° |
| 2026-05-06 07:56 | -16.04239 | 145.45201 | 2401 ft | 158 kts | 160° |
| 2026-05-06 07:56 | -16.05299 | 145.45481 | 2458 ft | 161 kts | 173° |
| 2026-05-06 07:56 | -16.06429 | 145.45664 | 2397 ft | 165 kts | 171° |
| 2026-05-06 07:57 | -16.07534 | 145.45830 | 2589 ft | 158 kts | 173° |
| 2026-05-06 07:57 | -16.08612 | 145.45916 | 2858 ft | 151 kts | 175° |
| 2026-05-06 07:57 | -16.09657 | 145.46007 | 3112 ft | 151 kts | 175° |
| 2026-05-06 07:57 | -16.10664 | 145.46039 | 3704 ft | 142 kts | 178° |
| 2026-05-06 07:58 | -16.11650 | 145.46017 | 4308 ft | 142 kts | 180° |
| 2026-05-06 07:58 | -16.12663 | 145.46021 | 4809 ft | 148 kts | 179° |
| 2026-05-06 07:58 | -16.13699 | 145.46063 | 4871 ft | 156 kts | 176° |
| 2026-05-06 07:58 | -16.14845 | 145.46138 | 4324 ft | 170 kts | 174° |
| 2026-05-06 07:59 | -16.16001 | 145.46242 | 3949 ft | 164 kts | 173° |
| 2026-05-06 07:59 | -16.17151 | 145.46318 | 3689 ft | 166 kts | 174° |
| 2026-05-06 07:59 | -16.18284 | 145.46565 | 3238 ft | 170 kts | 163° |
| 2026-05-06 07:59 | -16.19436 | 145.46911 | 2726 ft | 172 kts | 164° |
| 2026-05-06 08:00 | -16.20565 | 145.47213 | 2405 ft | 166 kts | 164° |
| 2026-05-06 08:00 | -16.21661 | 145.47517 | 2294 ft | 158 kts | 164° |
| 2026-05-06 08:00 | -16.22686 | 145.47793 | 2416 ft | 148 kts | 165° |
| 2026-05-06 08:00 | -16.23682 | 145.48008 | 2638 ft | 143 kts | 168° |
| 2026-05-06 08:01 | -16.24658 | 145.48153 | 2927 ft | 140 kts | 171° |
| 2026-05-06 08:01 | -16.25624 | 145.48272 | 3199 ft | 140 kts | 172° |
| 2026-05-06 08:01 | -16.26586 | 145.48423 | 3405 ft | 142 kts | 169° |
| 2026-05-06 08:01 | -16.27557 | 145.48709 | 3509 ft | 146 kts | 160° |
| 2026-05-06 08:02 | -16.28515 | 145.49088 | 3557 ft | 149 kts | 160° |
| 2026-05-06 08:02 | -16.29512 | 145.49411 | 3576 ft | 152 kts | 162° |
| 2026-05-06 08:02 | -16.30530 | 145.49723 | 3595 ft | 152 kts | 163° |
| 2026-05-06 08:02 | -16.31560 | 145.50021 | 3612 ft | 154 kts | 164° |
| 2026-05-06 08:03 | -16.32595 | 145.50275 | 3622 ft | 153 kts | 166° |
| 2026-05-06 08:03 | -16.33622 | 145.50545 | 3630 ft | 153 kts | 164° |
| 2026-05-06 08:03 | -16.34652 | 145.50858 | 3638 ft | 153 kts | 162° |
| 2026-05-06 08:03 | -16.35677 | 145.51150 | 3638 ft | 154 kts | 165° |
| 2026-05-06 08:04 | -16.36728 | 145.51361 | 3636 ft | 153 kts | 168° |
| 2026-05-06 08:04 | -16.37764 | 145.51609 | 3666 ft | 151 kts | 165° |
| 2026-05-06 08:04 | -16.38777 | 145.51888 | 3688 ft | 152 kts | 164° |
| 2026-05-06 08:04 | -16.39815 | 145.52123 | 3705 ft | 152 kts | 168° |
| 2026-05-06 08:05 | -16.40858 | 145.52276 | 3705 ft | 153 kts | 171° |
| 2026-05-06 08:05 | -16.41930 | 145.52361 | 3698 ft | 154 kts | 174° |
| 2026-05-06 08:05 | -16.42994 | 145.52438 | 3698 ft | 154 kts | 174° |
| 2026-05-06 08:05 | -16.44071 | 145.52517 | 3709 ft | 154 kts | 174° |
| 2026-05-06 08:06 | -16.45134 | 145.52588 | 3717 ft | 154 kts | 174° |
| 2026-05-06 08:06 | -16.46215 | 145.52642 | 3725 ft | 155 kts | 175° |
| 2026-05-06 08:06 | -16.47290 | 145.52668 | 3740 ft | 155 kts | 177° |
| 2026-05-06 08:06 | -16.48373 | 145.52655 | 3754 ft | 155 kts | 180° |
| 2026-05-06 08:07 | -16.49449 | 145.52588 | 3769 ft | 157 kts | 182° |
| 2026-05-06 08:07 | -16.50541 | 145.52454 | 3772 ft | 158 kts | 186° |
| 2026-05-06 08:07 | -16.51617 | 145.52273 | 3777 ft | 158 kts | 186° |
| 2026-05-06 08:07 | -16.52712 | 145.52233 | 3758 ft | 157 kts | 176° |
| 2026-05-06 08:08 | -16.53804 | 145.52356 | 3704 ft | 158 kts | 172° |
| 2026-05-06 08:08 | -16.54885 | 145.52499 | 3671 ft | 157 kts | 171° |
| 2026-05-06 08:08 | -16.55969 | 145.52669 | 3673 ft | 156 kts | 169° |
| 2026-05-06 08:08 | -16.57018 | 145.52863 | 3711 ft | 155 kts | 167° |
| 2026-05-06 08:09 | -16.58053 | 145.53181 | 3728 ft | 153 kts | 160° |
| 2026-05-06 08:09 | -16.59032 | 145.53600 | 3752 ft | 152 kts | 155° |
| 2026-05-06 08:09 | -16.59982 | 145.54084 | 3777 ft | 151 kts | 152° |
| 2026-05-06 08:09 | -16.60910 | 145.54602 | 3810 ft | 150 kts | 151° |
| 2026-05-06 08:10 | -16.61823 | 145.55117 | 3842 ft | 151 kts | 152° |
| 2026-05-06 08:10 | -16.62738 | 145.55662 | 3866 ft | 151 kts | 148° |
| 2026-05-06 08:10 | -16.63608 | 145.56260 | 3878 ft | 151 kts | 146° |
| 2026-05-06 08:10 | -16.64474 | 145.56897 | 3885 ft | 152 kts | 144° |
| 2026-05-06 08:11 | -16.65327 | 145.57531 | 3892 ft | 152 kts | 144° |
| 2026-05-06 08:11 | -16.66198 | 145.58165 | 3931 ft | 151 kts | 145° |
| 2026-05-06 08:11 | -16.66981 | 145.58870 | 3992 ft | 150 kts | 135° |
| 2026-05-06 08:11 | -16.67626 | 145.59724 | 4042 ft | 151 kts | 129° |
| 2026-05-06 08:12 | -16.68283 | 145.60578 | 4107 ft | 150 kts | 131° |
| 2026-05-06 08:12 | -16.68969 | 145.61382 | 4172 ft | 148 kts | 134° |
| 2026-05-06 08:12 | -16.69709 | 145.62156 | 3784 ft | 154 kts | 136° |
| 2026-05-06 08:12 | -16.70495 | 145.62934 | 3139 ft | 157 kts | 136° |
| 2026-05-06 08:13 | -16.71235 | 145.63733 | 2712 ft | 151 kts | 134° |
| 2026-05-06 08:13 | -16.71929 | 145.64517 | 2683 ft | 138 kts | 133° |
| 2026-05-06 08:13 | -16.72574 | 145.65185 | 2749 ft | 128 kts | 139° |
| 2026-05-06 08:13 | -16.73305 | 145.65701 | 2600 ft | 125 kts | 148° |
| 2026-05-06 08:14 | -16.74073 | 145.66108 | 2494 ft | 125 kts | 155° |
| 2026-05-06 08:14 | -16.74898 | 145.66454 | 2424 ft | 131 kts | 159° |
| 2026-05-06 08:14 | -16.75831 | 145.66641 | 2090 ft | 136 kts | 169° |
| 2026-05-06 08:14 | -16.76673 | 145.66888 | 2143 ft | 123 kts | 165° |
| 2026-05-06 08:15 | -16.77459 | 145.67228 | 2265 ft | 122 kts | 162° |
| 2026-05-06 08:15 | -16.78237 | 145.67597 | 2329 ft | 124 kts | 160° |
| 2026-05-06 08:15 | -16.79039 | 145.67971 | 2327 ft | 128 kts | 162° |
| 2026-05-06 08:15 | -16.79836 | 145.68299 | 2364 ft | 119 kts | 168° |
| 2026-05-06 08:16 | -16.80616 | 145.68501 | 2596 ft | 113 kts | 173° |
| 2026-05-06 08:16 | -16.81417 | 145.68665 | 2670 ft | 122 kts | 174° |
| 2026-05-06 08:16 | -16.82274 | 145.68824 | 2683 ft | 127 kts | 174° |
| 2026-05-06 08:16 | -16.83152 | 145.68991 | 2640 ft | 129 kts | 173° |
| 2026-05-06 08:17 | -16.84026 | 145.69214 | 2536 ft | 133 kts | 168° |
| 2026-05-06 08:17 | -16.84911 | 145.69576 | 2365 ft | 140 kts | 160° |
| 2026-05-06 08:17 | -16.85745 | 145.70107 | 2191 ft | 139 kts | 151° |
| 2026-05-06 08:17 | -16.86486 | 145.70726 | 2117 ft | 137 kts | 145° |
| 2026-05-06 08:18 | -16.87137 | 145.71450 | 2063 ft | 135 kts | 138° |
| 2026-05-06 08:18 | -16.87733 | 145.72192 | 1850 ft | 132 kts | 137° |
| 2026-05-06 08:18 | -16.88294 | 145.72913 | 1781 ft | 121 kts | 141° |
| 2026-05-06 08:18 | -16.88835 | 145.73530 | 1958 ft | 115 kts | 143° |
| 2026-05-06 08:19 | -16.89428 | 145.74115 | 1904 ft | 121 kts | 143° |
| 2026-05-06 08:19 | -16.89764 | 145.74948 | 1088 ft | 128 kts | 107° |
| 2026-05-06 08:19 | -16.89729 | 145.75810 | 871 ft | 111 kts | 89° |
| 2026-05-06 08:19 | -16.89242 | 145.76331 | 864 ft | 104 kts | 49° |
| 2026-05-06 08:20 | -16.88498 | 145.76275 | 784 ft | 116 kts | 1° |
| 2026-05-06 08:20 | -16.88060 | 145.75611 | 437 ft | 121 kts | 278° |
| 2026-05-06 08:20 | -16.88383 | 145.75213 | 284 ft | 37 kts | 264° |
| 2026-05-06 08:20 | -16.88584 | 145.75336 | 181 ft | 32 kts | 296° |
| 2026-05-06 08:21 | -16.88524 | 145.75210 | 85 ft | 45 kts | 339° |
| 2026-05-06 08:21 | -16.88621 | 145.75159 | 75 ft | 6 kts | 32° |
| 2026-05-06 08:21 | -16.88603 | 145.75249 | 64 ft | 37 kts | 110° |
| 2026-05-06 08:21 | -16.88813 | 145.75044 | 195 ft | 63 kts | 213° |
| 2026-05-06 08:22 | -16.89078 | 145.74765 | 580 ft | 57 kts | 183° |
| 2026-05-06 08:22 | -16.89428 | 145.75039 | 1032 ft | 82 kts | 88° |
| 2026-05-06 08:22 | -16.89582 | 145.75455 | 1115 ft | 36 kts | 358° |
| 2026-05-06 08:22 | -16.89363 | 145.75633 | 962 ft | 53 kts | 1° |
| 2026-05-06 08:23 | -16.88955 | 145.75597 | 811 ft | 57 kts | 343° |
| 2026-05-06 08:23 | -16.88701 | 145.75484 | 557 ft | 32 kts | 325° |
| 2026-05-06 08:23 | -16.88564 | 145.75340 | 302 ft | 25 kts | 301° |
| 2026-05-06 08:23 | -16.88612 | 145.75259 | 139 ft | 9 kts | 265° |
| 2026-05-06 08:24 | -16.88610 | 145.75153 | 35 ft | 9 kts | 220° |
| 2026-05-06 08:24 | -16.88647 | 145.75138 | 31 ft | 5 kts | 180° |
| 2026-05-06 08:24 | -16.88643 | 145.75143 | 29 ft | 3 kts | 141° |
| 2026-05-06 08:24 | -16.88651 | 145.75155 | 24 ft | 2 kts | 102° |
| 2026-05-06 08:25 | -16.88646 | 145.75168 | 14 ft | 0 kts | 68° |